createdAt,value
2022-11-18T00:00:47.720Z,1.6
2022-11-18T00:05:55.030Z,1.5
2022-11-18T00:11:02.321Z,1.5
2022-11-18T00:16:09.635Z,1.5
2022-11-18T00:21:16.951Z,1.4
2022-11-18T00:26:24.245Z,1.4
2022-11-18T00:31:31.559Z,1.4
2022-11-18T00:36:38.930Z,1.4
2022-11-18T00:41:46.191Z,1.4
2022-11-18T00:46:53.489Z,1.4
2022-11-18T00:52:00.805Z,1.3
2022-11-18T00:57:08.147Z,1.3
2022-11-18T01:02:15.475Z,1.3
2022-11-18T01:07:22.759Z,1.3
2022-11-18T01:12:30.076Z,1.3
2022-11-18T01:17:37.398Z,1.3
2022-11-18T01:22:44.714Z,1.2
2022-11-18T01:27:52.041Z,1.2
2022-11-18T01:32:59.368Z,1.2
2022-11-18T01:38:06.704Z,1.2
2022-11-18T01:43:14.034Z,1.2
2022-11-18T01:48:21.346Z,1.2
2022-11-18T01:53:28.693Z,1.1
2022-11-18T01:58:36.004Z,1.1
2022-11-18T02:03:43.386Z,1.1
2022-11-18T02:08:50.589Z,1.1
2022-11-18T02:13:57.911Z,1.1
2022-11-18T02:19:05.198Z,1
2022-11-18T02:24:12.525Z,1
2022-11-18T02:29:19.835Z,0.9
2022-11-18T02:34:27.191Z,0.9
2022-11-18T02:39:34.453Z,0.9
2022-11-18T02:44:41.808Z,0.8
2022-11-18T02:49:49.078Z,0.7
2022-11-18T02:54:56.388Z,0.7
2022-11-18T03:00:03.704Z,0.6
2022-11-18T03:05:11.034Z,0.6
2022-11-18T03:10:18.334Z,0.5
2022-11-18T03:15:25.645Z,0.5
2022-11-18T03:20:33.006Z,0.4
2022-11-18T03:25:40.306Z,0.4
2022-11-18T03:30:47.607Z,0.4
2022-11-18T03:35:54.908Z,0.3
2022-11-18T03:41:02.254Z,0.4
2022-11-18T03:46:09.560Z,0.3
2022-11-18T03:51:16.858Z,0.3
2022-11-18T03:56:24.197Z,0.3
2022-11-18T04:01:31.520Z,0.3
2022-11-18T04:06:38.841Z,0.3
2022-11-18T04:11:46.258Z,0.3
2022-11-18T04:16:53.502Z,0.3
2022-11-18T04:22:00.837Z,0.2
2022-11-18T04:27:08.119Z,0.2
2022-11-18T04:32:15.448Z,0.2
2022-11-18T04:37:22.762Z,0.1
2022-11-18T04:42:30.089Z,0
2022-11-18T04:47:37.430Z,0.1
2022-11-18T04:52:44.734Z,0
2022-11-18T04:57:52.119Z,0
2022-11-18T05:02:59.445Z,0
2022-11-18T05:08:06.706Z,0
2022-11-18T05:13:14.005Z,0
2022-11-18T05:18:21.323Z,0
2022-11-18T05:23:28.646Z,0
2022-11-18T05:28:35.985Z,-0.1
2022-11-18T05:33:43.389Z,-0.1
2022-11-18T05:38:50.615Z,0
2022-11-18T05:43:57.943Z,-0.1
2022-11-18T05:49:05.371Z,-0.1
2022-11-18T05:54:12.610Z,-0.1
2022-11-18T05:59:19.916Z,-0.1
2022-11-18T06:04:27.240Z,-0.1
2022-11-18T06:09:34.588Z,-0.2
2022-11-18T06:14:41.905Z,-0.3
2022-11-18T06:19:49.201Z,-0.4
2022-11-18T06:24:56.527Z,-0.4
2022-11-18T06:30:03.856Z,-0.4
2022-11-18T06:35:11.202Z,-0.5
2022-11-18T06:40:18.464Z,-0.6
2022-11-18T06:45:25.783Z,-0.6
2022-11-18T06:50:33.107Z,-0.7
2022-11-18T06:55:40.499Z,-0.6
2022-11-18T07:00:47.707Z,-0.7
2022-11-18T07:05:55.019Z,-0.8
2022-11-18T07:11:02.371Z,-0.8
2022-11-18T07:16:09.737Z,-0.8
2022-11-18T07:21:16.937Z,-0.8
2022-11-18T07:26:24.227Z,-0.8
2022-11-18T07:31:31.637Z,-0.9
2022-11-18T07:36:38.811Z,-0.9
2022-11-18T07:41:46.153Z,-0.8
2022-11-18T07:45:10.755Z,-0.9
2022-11-18T07:50:15.903Z,-0.8
2022-11-18T07:55:22.006Z,-0.8
2022-11-18T08:00:28.204Z,-0.9
2022-11-18T08:05:34.362Z,-0.8
2022-11-18T08:10:40.428Z,-0.9
2022-11-18T08:15:46.531Z,-0.9
2022-11-18T08:20:52.632Z,-0.9
2022-11-18T08:25:58.773Z,-0.9
2022-11-18T08:31:04.870Z,-0.9
2022-11-18T08:36:10.974Z,-1
2022-11-18T08:41:17.092Z,-1
2022-11-18T08:46:23.216Z,-1.1
2022-11-18T08:51:29.326Z,-1.1
2022-11-18T08:56:35.471Z,-1
2022-11-18T09:01:41.589Z,-1
2022-11-18T09:06:47.849Z,-1.1
2022-11-18T09:11:53.801Z,-1
2022-11-18T09:17:00.006Z,-1
2022-11-18T09:22:06.089Z,-1
2022-11-18T09:27:11.202Z,-1.1
2022-11-18T09:32:16.599Z,-1
2022-11-18T09:37:22.623Z,-1
2022-11-18T09:42:28.757Z,-1
2022-11-18T09:47:34.894Z,-1
2022-11-18T09:52:40.937Z,-1
2022-11-18T09:57:47.045Z,-1.1
2022-11-18T10:02:53.180Z,-1.1
2022-11-18T10:07:59.236Z,-1.1
2022-11-18T10:13:05.420Z,-1.2
2022-11-18T10:18:11.604Z,-1.2
2022-11-18T10:23:17.715Z,-1.4
2022-11-18T10:28:23.840Z,-1.5
2022-11-18T10:33:30.027Z,-1.4
2022-11-18T10:38:35.013Z,-1.4
2022-11-18T10:43:41.035Z,-1.3
2022-11-18T10:48:47.173Z,-1.3
2022-11-18T10:53:53.464Z,-1.3
2022-11-18T10:58:59.580Z,-1.3
2022-11-18T11:04:05.516Z,-1.2
2022-11-18T11:09:11.766Z,-1.4
2022-11-18T11:14:16.981Z,-1.4
2022-11-18T11:19:21.919Z,-1.3
2022-11-18T11:24:28.049Z,-1.3
2022-11-18T11:29:33.218Z,-1.3
2022-11-18T11:34:38.457Z,-1.2
2022-11-18T11:39:44.529Z,-1.3
2022-11-18T11:44:50.608Z,-1.4
2022-11-18T11:49:56.714Z,-1.4
2022-11-18T11:55:02.809Z,-1.5
2022-11-18T12:05:15.178Z,-1.6
2022-11-18T12:10:21.184Z,-1.7
2022-11-18T12:15:27.364Z,-1.6
2022-11-18T12:20:33.422Z,-1.7
2022-11-18T12:25:39.601Z,-1.6
2022-11-18T12:30:45.672Z,-1.6
2022-11-18T12:35:51.841Z,-1.7
2022-11-18T12:40:56.967Z,-1.7
2022-11-18T12:46:03.045Z,-1.7
2022-11-18T12:51:09.157Z,-1.7
2022-11-18T12:56:15.315Z,-1.8
2022-11-18T13:01:21.410Z,-1.8
2022-11-18T13:06:27.540Z,-1.8
2022-11-18T13:11:33.665Z,-1.7
2022-11-18T13:16:39.769Z,-1.8
2022-11-18T13:21:45.017Z,-1.8
2022-11-18T13:26:50.058Z,-1.8
2022-11-18T13:31:56.179Z,-1.7
2022-11-18T13:37:02.318Z,-1.8
2022-11-18T13:42:08.594Z,-1.8
2022-11-18T13:47:14.540Z,-1.8
2022-11-18T13:52:20.799Z,-1.8
2022-11-18T13:57:26.855Z,-1.8
2022-11-18T14:02:32.902Z,-1.7
2022-11-18T14:07:39.024Z,-1.7
2022-11-18T14:12:45.143Z,-1.8
2022-11-18T14:17:51.255Z,-1.8
2022-11-18T14:22:57.435Z,-1.8
2022-11-18T14:28:03.566Z,-1.8
2022-11-18T14:38:14.756Z,-1.9
2022-11-18T14:43:20.872Z,-1.9
2022-11-18T14:48:27.169Z,-1.9
2022-11-18T14:53:33.123Z,-1.9
2022-11-18T14:58:39.291Z,-1.9
2022-11-18T15:03:45.440Z,-1.9
2022-11-18T15:08:51.483Z,-1.9
2022-11-18T15:13:56.687Z,-1.9
2022-11-18T15:19:01.991Z,-1.9
2022-11-18T15:24:07.030Z,-1.9
2022-11-18T15:29:12.142Z,-2.1
2022-11-18T15:34:18.231Z,-2.2
2022-11-18T15:39:24.339Z,-2.2
2022-11-18T15:44:30.394Z,-2.3
2022-11-18T15:49:36.617Z,-2.3
2022-11-18T15:54:42.774Z,-2.4
2022-11-18T15:59:48.758Z,-2.4
2022-11-18T16:04:54.957Z,-2.4
2022-11-18T16:10:00.995Z,-2.6
2022-11-18T16:15:07.112Z,-2.6
2022-11-18T16:20:13.230Z,-2.6
2022-11-18T16:25:19.341Z,-2.7
2022-11-18T16:30:25.471Z,-2.7
2022-11-18T16:35:30.758Z,-2.8
2022-11-18T16:40:36.705Z,-2.8
2022-11-18T16:45:42.824Z,-2.9
2022-11-18T16:50:48.959Z,-3
2022-11-18T16:55:55.068Z,-3.1
2022-11-18T17:01:01.203Z,-3.2
2022-11-18T17:06:07.301Z,-3.2
2022-11-18T17:11:12.465Z,-3.3
2022-11-18T17:16:17.580Z,-3.4
2022-11-18T17:21:22.867Z,-3.4
2022-11-18T17:26:27.852Z,-3.4
2022-11-18T17:31:33.977Z,-3.4
2022-11-18T17:36:40.104Z,-3.5
2022-11-18T17:41:46.213Z,-3.6
2022-11-18T17:46:52.338Z,-3.7
2022-11-18T17:51:58.445Z,-3.9
2022-11-18T17:57:04.567Z,-3.9
2022-11-18T18:02:10.690Z,-4
2022-11-18T18:07:16.810Z,-4.1
2022-11-18T18:12:22.932Z,-4.1
2022-11-18T18:17:29.062Z,-4.4
2022-11-18T18:22:35.162Z,-4.3
2022-11-18T18:27:41.283Z,-4.6
2022-11-18T18:32:46.407Z,-5
2022-11-18T18:37:52.524Z,-4.9
2022-11-18T18:42:58.659Z,-5
2022-11-18T18:48:04.761Z,-5.3
2022-11-18T18:53:10.885Z,-5.3
2022-11-18T18:58:17.053Z,-5.4
2022-11-18T19:03:23.133Z,-5.8
2022-11-18T19:08:28.272Z,-6.2
2022-11-18T19:13:33.473Z,-6.1
2022-11-18T19:18:39.709Z,-6
2022-11-18T19:23:45.756Z,-5.7
2022-11-18T19:28:51.878Z,-5.8
2022-11-18T19:33:57.928Z,-5.9
2022-11-18T19:39:04.151Z,-6.2
2022-11-18T19:44:10.268Z,-6.5
2022-11-18T19:49:16.347Z,-6.4
2022-11-18T19:54:22.500Z,-6
2022-11-18T19:59:28.625Z,-5.8
2022-11-18T20:04:34.677Z,-5.8
2022-11-18T20:09:40.687Z,-6.2
2022-11-18T20:14:46.863Z,-6.1
2022-11-18T20:19:51.958Z,-5.8
2022-11-18T20:24:58.153Z,-6
2022-11-18T20:30:04.248Z,-6.5
2022-11-18T20:35:10.426Z,-7.1
2022-11-18T20:40:16.442Z,-6.9
2022-11-18T20:45:22.623Z,-6.8
2022-11-18T20:50:28.731Z,-6.8
2022-11-18T20:55:33.864Z,-7
2022-11-18T21:00:39.051Z,-6.7
2022-11-18T21:05:44.159Z,-6.8
2022-11-18T21:10:49.269Z,-6.4
2022-11-18T21:15:54.427Z,-6.5
2022-11-18T21:20:59.475Z,-6.6
2022-11-18T21:26:05.652Z,-6.3
2022-11-18T21:31:11.728Z,-6.1
2022-11-18T21:36:17.833Z,-6.2
2022-11-18T21:41:23.960Z,-6.4
2022-11-18T21:46:30.090Z,-6.6
2022-11-18T21:51:36.255Z,-7.2
2022-11-18T21:56:42.418Z,-6.7
2022-11-18T22:01:48.462Z,-6.9
2022-11-18T22:06:54.636Z,-6.9
2022-11-18T22:12:00.840Z,-7.3
2022-11-18T22:17:06.825Z,-7.6
2022-11-18T22:22:13.073Z,-8
2022-11-18T22:32:24.238Z,-8.1
2022-11-18T22:37:30.298Z,-7.3
2022-11-18T22:42:36.507Z,-7.3
2022-11-18T22:47:42.727Z,-7.4
2022-11-18T22:52:48.804Z,-7
2022-11-18T22:57:54.781Z,-7.3
2022-11-18T23:03:01.000Z,-7
2022-11-18T23:08:06.028Z,-6.9
2022-11-18T23:13:11.167Z,-6.9
2022-11-18T23:18:17.295Z,-7.5
2022-11-18T23:23:22.521Z,-7.3
2022-11-18T23:28:27.565Z,-7
2022-11-18T23:33:33.698Z,-6.8
2022-11-18T23:38:39.814Z,-6.7
2022-11-18T23:43:45.927Z,-6.8
2022-11-18T23:48:52.041Z,-7.2
2022-11-18T23:53:58.231Z,-7
2022-11-18T23:59:04.365Z,-6.9
